sensor_id;sensor_type;location;lat;lon;timestamp;pressure;altitude;pressure_sealevel;temperature;humidity
18678;BME280;9469;51.114;13.914;2022-08-03T00:02:44;98900.38;;;20.20;92.65
18678;BME280;9469;51.114;13.914;2022-08-03T00:07:52;98891.09;;;20.17;92.05
18678;BME280;9469;51.114;13.914;2022-08-03T00:12:57;98897.22;;;20.14;91.92
18678;BME280;9469;51.114;13.914;2022-08-03T00:18:03;98896.53;;;19.79;93.75
18678;BME280;9469;51.114;13.914;2022-08-03T00:23:11;98896.09;;;19.58;94.67
18678;BME280;9469;51.114;13.914;2022-08-03T00:28:16;98897.16;;;19.18;96.56
18678;BME280;9469;51.114;13.914;2022-08-03T00:33:21;98892.81;;;19.14;97.10
18678;BME280;9469;51.114;13.914;2022-08-03T00:38:31;98886.34;;;18.99;97.60
18678;BME280;9469;51.114;13.914;2022-08-03T00:43:36;98879.47;;;19.21;96.95
18678;BME280;9469;51.114;13.914;2022-08-03T00:48:41;98887.44;;;18.98;98.18
18678;BME280;9469;51.114;13.914;2022-08-03T00:53:49;98886.63;;;18.63;100.00
18678;BME280;9469;51.114;13.914;2022-08-03T00:58:55;98887.63;;;18.90;98.71
18678;BME280;9469;51.114;13.914;2022-08-03T01:04:02;98883.72;;;18.87;98.54
18678;BME280;9469;51.114;13.914;2022-08-03T01:09:18;98883.94;;;18.63;99.89
18678;BME280;9469;51.114;13.914;2022-08-03T01:14:32;98886.16;;;18.92;98.37
18678;BME280;9469;51.114;13.914;2022-08-03T01:19:45;98885.75;;;18.75;98.48
18678;BME280;9469;51.114;13.914;2022-08-03T01:25:01;98891.22;;;18.78;98.33
18678;BME280;9469;51.114;13.914;2022-08-03T01:30:10;98879.31;;;18.63;98.84
18678;BME280;9469;51.114;13.914;2022-08-03T01:35:21;98880.94;;;18.68;99.02
18678;BME280;9469;51.114;13.914;2022-08-03T01:40:30;98879.91;;;18.73;98.75
18678;BME280;9469;51.114;13.914;2022-08-03T01:45:40;98880.81;;;18.61;99.52
18678;BME280;9469;51.114;13.914;2022-08-03T01:50:46;98875.41;;;18.45;99.65
18678;BME280;9469;51.114;13.914;2022-08-03T01:55:53;98878.91;;;18.18;100.00
18678;BME280;9469;51.114;13.914;2022-08-03T02:01:02;98877.19;;;18.41;100.00
18678;BME280;9469;51.114;13.914;2022-08-03T02:06:09;98885.16;;;18.07;100.00
18678;BME280;9469;51.114;13.914;2022-08-03T02:11:35;98877.31;;;18.45;99.93
18678;BME280;9469;51.114;13.914;2022-08-03T02:16:45;98870.38;;;18.16;100.00
18678;BME280;9469;51.114;13.914;2022-08-03T02:21:53;98876.28;;;18.06;100.00
18678;BME280;9469;51.114;13.914;2022-08-03T02:27:04;98862.31;;;18.16;100.00
18678;BME280;9469;51.114;13.914;2022-08-03T02:32:29;98862.47;;;18.08;100.00
18678;BME280;9469;51.114;13.914;2022-08-03T02:37:41;98859.75;;;17.92;100.00
18678;BME280;9469;51.114;13.914;2022-08-03T02:42:52;98858.56;;;18.05;100.00
18678;BME280;9469;51.114;13.914;2022-08-03T02:48:03;98857.91;;;18.24;100.00
18678;BME280;9469;51.114;13.914;2022-08-03T02:53:10;98847.84;;;17.77;100.00
18678;BME280;9469;51.114;13.914;2022-08-03T02:58:17;98854.59;;;18.15;100.00
18678;BME280;9469;51.114;13.914;2022-08-03T03:03:26;98861.38;;;18.09;100.00
18678;BME280;9469;51.114;13.914;2022-08-03T03:08:45;98863.84;;;17.86;100.00
18678;BME280;9469;51.114;13.914;2022-08-03T03:13:51;98853.88;;;17.59;100.00
18678;BME280;9469;51.114;13.914;2022-08-03T03:19:00;98862.28;;;17.45;100.00
18678;BME280;9469;51.114;13.914;2022-08-03T03:24:09;98859.81;;;17.40;100.00
18678;BME280;9469;51.114;13.914;2022-08-03T03:29:14;98867.66;;;17.45;100.00
18678;BME280;9469;51.114;13.914;2022-08-03T03:34:22;98859.56;;;17.57;100.00
18678;BME280;9469;51.114;13.914;2022-08-03T03:39:29;98865.78;;;17.34;100.00
18678;BME280;9469;51.114;13.914;2022-08-03T03:44:34;98864.22;;;17.33;100.00
18678;BME280;9469;51.114;13.914;2022-08-03T03:49:42;98856.56;;;17.47;100.00
18678;BME280;9469;51.114;13.914;2022-08-03T03:54:49;98851.75;;;17.52;100.00
18678;BME280;9469;51.114;13.914;2022-08-03T04:00:01;98856.44;;;17.83;100.00
18678;BME280;9469;51.114;13.914;2022-08-03T04:05:10;98856.56;;;17.86;100.00
18678;BME280;9469;51.114;13.914;2022-08-03T04:10:30;98858.38;;;17.98;100.00
18678;BME280;9469;51.114;13.914;2022-08-03T04:15:51;98858.97;;;17.91;100.00
18678;BME280;9469;51.114;13.914;2022-08-03T04:21:02;98861.69;;;18.07;100.00
18678;BME280;9469;51.114;13.914;2022-08-03T04:26:09;98862.50;;;18.39;100.00
18678;BME280;9469;51.114;13.914;2022-08-03T04:31:17;98874.88;;;18.71;99.68
18678;BME280;9469;51.114;13.914;2022-08-03T04:36:31;98878.16;;;18.80;98.20
18678;BME280;9469;51.114;13.914;2022-08-03T04:41:38;98875.31;;;18.73;98.84
18678;BME280;9469;51.114;13.914;2022-08-03T04:47:05;98872.25;;;19.25;95.66
18678;BME280;9469;51.114;13.914;2022-08-03T04:52:12;98881.91;;;20.41;90.97
18678;BME280;9469;51.114;13.914;2022-08-03T04:57:19;98880.56;;;21.29;86.67
18678;BME280;9469;51.114;13.914;2022-08-03T05:02:24;98885.78;;;21.15;86.88
18678;BME280;9469;51.114;13.914;2022-08-03T05:07:32;98882.69;;;21.72;83.70
18678;BME280;9469;51.114;13.914;2022-08-03T05:12:37;98877.66;;;22.44;82.22
18678;BME280;9469;51.114;13.914;2022-08-03T05:17:42;98882.69;;;22.46;81.67
18678;BME280;9469;51.114;13.914;2022-08-03T05:22:53;98876.78;;;23.35;78.25
18678;BME280;9469;51.114;13.914;2022-08-03T05:27:58;98878.09;;;23.62;77.18
18678;BME280;9469;51.114;13.914;2022-08-03T05:33:04;98878.31;;;24.57;73.33
18678;BME280;9469;51.114;13.914;2022-08-03T05:38:12;98875.59;;;24.36;73.65
18678;BME280;9469;51.114;13.914;2022-08-03T05:43:29;98864.28;;;25.26;70.41
18678;BME280;9469;51.114;13.914;2022-08-03T05:48:37;98865.81;;;26.72;66.77
18678;BME280;9469;51.114;13.914;2022-08-03T05:53:45;98871.50;;;28.00;60.79
18678;BME280;9469;51.114;13.914;2022-08-03T05:58:51;98862.75;;;28.62;59.16
18678;BME280;9469;51.114;13.914;2022-08-03T06:03:57;98869.00;;;28.62;59.46
18678;BME280;9469;51.114;13.914;2022-08-03T06:09:06;98857.78;;;28.53;58.20
18678;BME280;9469;51.114;13.914;2022-08-03T06:14:13;98867.31;;;28.91;57.76
18678;BME280;9469;51.114;13.914;2022-08-03T06:19:18;98861.03;;;29.14;57.29
18678;BME280;9469;51.114;13.914;2022-08-03T06:24:28;98859.88;;;30.62;55.33
18678;BME280;9469;51.114;13.914;2022-08-03T06:29:35;98854.91;;;32.00;52.42
18678;BME280;9469;51.114;13.914;2022-08-03T06:34:40;98864.69;;;31.88;52.25
18678;BME280;9469;51.114;13.914;2022-08-03T06:39:49;98861.53;;;32.87;51.09
18678;BME280;9469;51.114;13.914;2022-08-03T06:44:56;98857.22;;;32.86;51.12
18678;BME280;9469;51.114;13.914;2022-08-03T06:50:02;98877.16;;;32.31;51.61
18678;BME280;9469;51.114;13.914;2022-08-03T06:55:22;98880.06;;;31.16;53.61
18678;BME280;9469;51.114;13.914;2022-08-03T07:00:40;98876.03;;;32.03;51.67
18678;BME280;9469;51.114;13.914;2022-08-03T07:05:45;98890.22;;;32.14;52.38
18678;BME280;9469;51.114;13.914;2022-08-03T07:10:55;98878.31;;;32.80;50.79
18678;BME280;9469;51.114;13.914;2022-08-03T07:16:04;98880.69;;;29.91;55.27
18678;BME280;9469;51.114;13.914;2022-08-03T07:21:10;98872.88;;;29.70;55.76
18678;BME280;9469;51.114;13.914;2022-08-03T07:26:20;98883.69;;;29.18;57.39
18678;BME280;9469;51.114;13.914;2022-08-03T07:31:27;98871.41;;;29.46;56.55
18678;BME280;9469;51.114;13.914;2022-08-03T07:36:35;98881.53;;;32.66;52.33
18678;BME280;9469;51.114;13.914;2022-08-03T07:41:43;98883.53;;;33.12;50.86
18678;BME280;9469;51.114;13.914;2022-08-03T07:46:48;98882.31;;;32.04;52.54
18678;BME280;9469;51.114;13.914;2022-08-03T07:51:54;98891.59;;;32.94;50.72
18678;BME280;9469;51.114;13.914;2022-08-03T07:57:14;98890.56;;;31.62;53.29
18678;BME280;9469;51.114;13.914;2022-08-03T08:02:19;98875.22;;;30.43;55.28
18678;BME280;9469;51.114;13.914;2022-08-03T08:07:24;98881.09;;;32.30;52.13
18678;BME280;9469;51.114;13.914;2022-08-03T08:12:31;98880.97;;;32.21;52.54
18678;BME280;9469;51.114;13.914;2022-08-03T08:17:41;98873.75;;;30.87;54.33
18678;BME280;9469;51.114;13.914;2022-08-03T08:22:50;98871.66;;;31.36;53.89
18678;BME280;9469;51.114;13.914;2022-08-03T08:27:58;98861.84;;;30.61;55.18
18678;BME280;9469;51.114;13.914;2022-08-03T08:33:25;98867.34;;;31.22;54.41
18678;BME280;9469;51.114;13.914;2022-08-03T08:38:50;98865.88;;;30.05;55.91
18678;BME280;9469;51.114;13.914;2022-08-03T08:43:59;98872.88;;;30.74;54.63
18678;BME280;9469;51.114;13.914;2022-08-03T08:49:05;98867.84;;;31.87;53.46
18678;BME280;9469;51.114;13.914;2022-08-03T08:54:26;98862.94;;;32.45;51.96
18678;BME280;9469;51.114;13.914;2022-08-03T09:00:05;98856.97;;;32.46;51.97
18678;BME280;9469;51.114;13.914;2022-08-03T09:05:18;98860.50;;;32.47;52.33
18678;BME280;9469;51.114;13.914;2022-08-03T09:10:43;98857.06;;;31.39;53.52
18678;BME280;9469;51.114;13.914;2022-08-03T09:16:08;98855.72;;;31.72;53.62
18678;BME280;9469;51.114;13.914;2022-08-03T09:21:16;98854.22;;;31.83;53.45
18678;BME280;9469;51.114;13.914;2022-08-03T09:26:37;98850.34;;;31.68;53.24
18678;BME280;9469;51.114;13.914;2022-08-03T09:31:46;98845.50;;;32.48;52.46
18678;BME280;9469;51.114;13.914;2022-08-03T09:36:55;98844.28;;;32.62;52.51
18678;BME280;9469;51.114;13.914;2022-08-03T09:42:05;98842.81;;;32.10;52.45
18678;BME280;9469;51.114;13.914;2022-08-03T09:47:14;98839.84;;;31.51;53.05
18678;BME280;9469;51.114;13.914;2022-08-03T09:52:19;98833.50;;;31.92;52.55
18678;BME280;9469;51.114;13.914;2022-08-03T09:57:41;98832.72;;;32.67;51.34
18678;BME280;9469;51.114;13.914;2022-08-03T10:03:03;98826.56;;;32.97;50.58
18678;BME280;9469;51.114;13.914;2022-08-03T10:08:13;98822.75;;;33.59;49.41
18678;BME280;9469;51.114;13.914;2022-08-03T10:13:20;98821.25;;;33.46;46.83
18678;BME280;9469;51.114;13.914;2022-08-03T10:18:27;98816.81;;;33.17;47.56
18678;BME280;9469;51.114;13.914;2022-08-03T10:23:34;98809.66;;;33.51;47.60
18678;BME280;9469;51.114;13.914;2022-08-03T10:28:41;98807.09;;;33.35;50.50
18678;BME280;9469;51.114;13.914;2022-08-03T10:33:54;98803.88;;;33.36;50.29
18678;BME280;9469;51.114;13.914;2022-08-03T10:39:02;98808.22;;;33.15;48.71
18678;BME280;9469;51.114;13.914;2022-08-03T10:44:18;98801.53;;;34.09;45.15
18678;BME280;9469;51.114;13.914;2022-08-03T10:49:26;98804.84;;;33.94;45.93
18678;BME280;9469;51.114;13.914;2022-08-03T10:54:38;98802.09;;;33.20;47.12
18678;BME280;9469;51.114;13.914;2022-08-03T11:00:13;98797.06;;;34.02;46.16
18678;BME280;9469;51.114;13.914;2022-08-03T11:05:28;98794.38;;;32.94;47.64
18678;BME280;9469;51.114;13.914;2022-08-03T11:10:34;98791.88;;;33.21;47.86
18678;BME280;9469;51.114;13.914;2022-08-03T11:15:40;98795.84;;;33.20;47.74
18678;BME280;9469;51.114;13.914;2022-08-03T11:20:51;98783.78;;;33.88;46.81
18678;BME280;9469;51.114;13.914;2022-08-03T11:26:14;98779.81;;;33.89;46.68
18678;BME280;9469;51.114;13.914;2022-08-03T11:31:50;98768.78;;;33.89;43.96
18678;BME280;9469;51.114;13.914;2022-08-03T11:37:24;98773.38;;;33.83;44.55
18678;BME280;9469;51.114;13.914;2022-08-03T11:42:43;98764.38;;;34.01;43.48
18678;BME280;9469;51.114;13.914;2022-08-03T11:47:52;98775.94;;;33.47;43.55
18678;BME280;9469;51.114;13.914;2022-08-03T11:53:02;98761.34;;;33.68;42.14
18678;BME280;9469;51.114;13.914;2022-08-03T11:58:07;98766.69;;;33.41;42.34
18678;BME280;9469;51.114;13.914;2022-08-03T12:03:33;98761.00;;;34.54;42.26
18678;BME280;9469;51.114;13.914;2022-08-03T12:08:47;98758.94;;;34.19;42.31
18678;BME280;9469;51.114;13.914;2022-08-03T12:14:15;98759.38;;;34.08;43.96
18678;BME280;9469;51.114;13.914;2022-08-03T12:19:41;98740.28;;;33.92;42.91
18678;BME280;9469;51.114;13.914;2022-08-03T12:24:49;98740.91;;;33.56;44.10
18678;BME280;9469;51.114;13.914;2022-08-03T12:29:55;98745.59;;;33.47;43.38
18678;BME280;9469;51.114;13.914;2022-08-03T12:35:03;98754.84;;;33.53;44.24
18678;BME280;9469;51.114;13.914;2022-08-03T12:40:11;98739.91;;;34.21;43.65
18678;BME280;9469;51.114;13.914;2022-08-03T12:45:24;98740.38;;;33.79;42.74
18678;BME280;9469;51.114;13.914;2022-08-03T12:50:31;98727.66;;;33.73;43.29
18678;BME280;9469;51.114;13.914;2022-08-03T12:55:41;98722.84;;;33.24;43.06
18678;BME280;9469;51.114;13.914;2022-08-03T13:01:05;98719.59;;;33.97;41.29
18678;BME280;9469;51.114;13.914;2022-08-03T13:06:15;98724.69;;;33.58;41.15
18678;BME280;9469;51.114;13.914;2022-08-03T13:11:25;98720.44;;;34.33;41.36
18678;BME280;9469;51.114;13.914;2022-08-03T13:16:51;98721.81;;;34.38;41.63
18678;BME280;9469;51.114;13.914;2022-08-03T13:21:56;98721.69;;;34.50;43.58
18678;BME280;9469;51.114;13.914;2022-08-03T13:27:08;98717.84;;;34.39;43.77
18678;BME280;9469;51.114;13.914;2022-08-03T13:32:33;98713.53;;;34.29;43.56
18678;BME280;9469;51.114;13.914;2022-08-03T13:37:38;98711.25;;;34.91;43.08
18678;BME280;9469;51.114;13.914;2022-08-03T13:42:52;98707.09;;;34.95;42.80
18678;BME280;9469;51.114;13.914;2022-08-03T13:47:57;98705.56;;;34.85;42.83
18678;BME280;9469;51.114;13.914;2022-08-03T13:53:02;98696.81;;;34.23;43.43
18678;BME280;9469;51.114;13.914;2022-08-03T13:58:09;98685.78;;;34.50;42.83
18678;BME280;9469;51.114;13.914;2022-08-03T14:03:15;98694.69;;;34.63;42.51
18678;BME280;9469;51.114;13.914;2022-08-03T14:08:21;98686.22;;;34.85;42.49
18678;BME280;9469;51.114;13.914;2022-08-03T14:13:28;98687.38;;;33.84;42.99
18678;BME280;9469;51.114;13.914;2022-08-03T14:18:33;98685.34;;;34.52;41.78
18678;BME280;9469;51.114;13.914;2022-08-03T14:23:42;98681.38;;;34.62;37.59
18678;BME280;9469;51.114;13.914;2022-08-03T14:28:50;98683.03;;;34.23;39.06
18678;BME280;9469;51.114;13.914;2022-08-03T14:33:58;98678.31;;;33.84;39.77
18678;BME280;9469;51.114;13.914;2022-08-03T14:39:03;98672.44;;;34.13;40.09
18678;BME280;9469;51.114;13.914;2022-08-03T14:44:10;98668.00;;;34.60;39.83
18678;BME280;9469;51.114;13.914;2022-08-03T14:49:15;98668.13;;;34.03;39.57
18678;BME280;9469;51.114;13.914;2022-08-03T14:54:40;98658.78;;;34.18;39.66
18678;BME280;9469;51.114;13.914;2022-08-03T14:59:48;98655.19;;;33.90;40.06
18678;BME280;9469;51.114;13.914;2022-08-03T15:04:58;98649.25;;;34.01;39.83
18678;BME280;9469;51.114;13.914;2022-08-03T15:10:03;98655.25;;;34.36;40.02
18678;BME280;9469;51.114;13.914;2022-08-03T15:15:11;98643.59;;;34.14;40.18
18678;BME280;9469;51.114;13.914;2022-08-03T15:20:16;98649.09;;;34.05;40.13
18678;BME280;9469;51.114;13.914;2022-08-03T15:25:42;98640.38;;;34.06;40.38
18678;BME280;9469;51.114;13.914;2022-08-03T15:31:09;98639.47;;;34.54;40.35
18678;BME280;9469;51.114;13.914;2022-08-03T15:36:20;98640.97;;;34.83;40.07
18678;BME280;9469;51.114;13.914;2022-08-03T15:41:25;98625.03;;;34.50;39.95
18678;BME280;9469;51.114;13.914;2022-08-03T15:46:32;98634.53;;;34.40;39.54
18678;BME280;9469;51.114;13.914;2022-08-03T15:51:37;98626.91;;;34.26;39.32
18678;BME280;9469;51.114;13.914;2022-08-03T15:56:42;98624.53;;;33.88;40.02
18678;BME280;9469;51.114;13.914;2022-08-03T16:01:50;98626.88;;;34.35;40.00
18678;BME280;9469;51.114;13.914;2022-08-03T16:06:57;98625.97;;;34.11;40.37
18678;BME280;9469;51.114;13.914;2022-08-03T16:12:03;98616.91;;;34.38;40.00
18678;BME280;9469;51.114;13.914;2022-08-03T16:17:20;98614.91;;;34.29;39.85
18678;BME280;9469;51.114;13.914;2022-08-03T16:22:25;98607.44;;;33.45;40.86
18678;BME280;9469;51.114;13.914;2022-08-03T16:27:32;98600.97;;;34.06;41.14
18678;BME280;9469;51.114;13.914;2022-08-03T16:33:10;98606.31;;;34.00;41.09
18678;BME280;9469;51.114;13.914;2022-08-03T16:38:18;98605.41;;;34.21;41.76
18678;BME280;9469;51.114;13.914;2022-08-03T16:43:24;98605.38;;;33.76;41.78
18678;BME280;9469;51.114;13.914;2022-08-03T16:48:32;98605.22;;;33.97;42.25
18678;BME280;9469;51.114;13.914;2022-08-03T16:53:37;98612.59;;;33.91;42.49
18678;BME280;9469;51.114;13.914;2022-08-03T16:59:03;98619.94;;;33.85;43.02
18678;BME280;9469;51.114;13.914;2022-08-03T17:04:11;98619.63;;;33.83;43.09
18678;BME280;9469;51.114;13.914;2022-08-03T17:09:17;98621.75;;;33.70;42.61
18678;BME280;9469;51.114;13.914;2022-08-03T17:14:23;98620.03;;;33.55;43.50
18678;BME280;9469;51.114;13.914;2022-08-03T17:19:33;98624.06;;;33.32;43.36
18678;BME280;9469;51.114;13.914;2022-08-03T17:24:50;98631.00;;;33.46;43.22
18678;BME280;9469;51.114;13.914;2022-08-03T17:29:58;98634.09;;;33.08;43.88
18678;BME280;9469;51.114;13.914;2022-08-03T17:35:08;98630.47;;;32.98;44.46
18678;BME280;9469;51.114;13.914;2022-08-03T17:40:16;98635.22;;;32.67;44.76
18678;BME280;9469;51.114;13.914;2022-08-03T17:45:23;98635.31;;;32.64;44.13
18678;BME280;9469;51.114;13.914;2022-08-03T17:50:55;98644.19;;;32.46;44.87
18678;BME280;9469;51.114;13.914;2022-08-03T17:56:08;98640.75;;;32.33;45.36
18678;BME280;9469;51.114;13.914;2022-08-03T18:01:40;98632.66;;;32.17;45.82
18678;BME280;9469;51.114;13.914;2022-08-03T18:07:24;98643.72;;;32.04;46.03
18678;BME280;9469;51.114;13.914;2022-08-03T18:12:46;98643.94;;;31.84;47.03
18678;BME280;9469;51.114;13.914;2022-08-03T18:17:53;98657.16;;;31.39;47.78
18678;BME280;9469;51.114;13.914;2022-08-03T18:23:09;98650.56;;;31.24;48.17
18678;BME280;9469;51.114;13.914;2022-08-03T18:28:35;98658.63;;;31.18;48.75
18678;BME280;9469;51.114;13.914;2022-08-03T18:33:44;98659.19;;;30.85;49.73
18678;BME280;9469;51.114;13.914;2022-08-03T18:39:12;98662.06;;;30.53;50.20
18678;BME280;9469;51.114;13.914;2022-08-03T18:44:22;98666.94;;;30.32;51.60
18678;BME280;9469;51.114;13.914;2022-08-03T18:49:54;98674.13;;;30.10;52.90
18678;BME280;9469;51.114;13.914;2022-08-03T18:55:07;98683.44;;;30.29;52.09
18678;BME280;9469;51.114;13.914;2022-08-03T19:00:23;98688.09;;;30.16;51.92
18678;BME280;9469;51.114;13.914;2022-08-03T19:05:53;98689.50;;;30.08;51.00
18678;BME280;9469;51.114;13.914;2022-08-03T19:11:21;98696.28;;;29.35;55.12
18678;BME280;9469;51.114;13.914;2022-08-03T19:16:31;98695.38;;;29.58;52.01
18678;BME280;9469;51.114;13.914;2022-08-03T19:21:40;98693.09;;;29.37;54.79
18678;BME280;9469;51.114;13.914;2022-08-03T19:26:48;98692.72;;;28.79;55.69
18678;BME280;9469;51.114;13.914;2022-08-03T19:31:57;98693.50;;;28.37;57.46
18678;BME280;9469;51.114;13.914;2022-08-03T19:37:10;98697.69;;;28.22;58.48
18678;BME280;9469;51.114;13.914;2022-08-03T19:42:23;98696.66;;;28.78;57.31
18678;BME280;9469;51.114;13.914;2022-08-03T19:47:35;98698.78;;;28.48;58.55
18678;BME280;9469;51.114;13.914;2022-08-03T19:52:46;98696.25;;;28.37;58.86
18678;BME280;9469;51.114;13.914;2022-08-03T19:57:55;98694.97;;;27.99;59.87
18678;BME280;9469;51.114;13.914;2022-08-03T20:03:02;98689.50;;;27.72;60.35
18678;BME280;9469;51.114;13.914;2022-08-03T20:08:25;98693.72;;;28.03;59.94
18678;BME280;9469;51.114;13.914;2022-08-03T20:13:33;98692.44;;;27.58;61.51
18678;BME280;9469;51.114;13.914;2022-08-03T20:18:40;98699.03;;;27.34;61.81
18678;BME280;9469;51.114;13.914;2022-08-03T20:23:47;98697.53;;;26.99;62.75
18678;BME280;9469;51.114;13.914;2022-08-03T20:29:19;98692.47;;;26.60;61.96
18678;BME280;9469;51.114;13.914;2022-08-03T20:34:46;98696.69;;;26.68;62.13
18678;BME280;9469;51.114;13.914;2022-08-03T20:39:53;98695.22;;;26.60;61.98
18678;BME280;9469;51.114;13.914;2022-08-03T20:45:02;98696.78;;;26.58;62.64
18678;BME280;9469;51.114;13.914;2022-08-03T20:50:28;98700.03;;;26.05;63.33
18678;BME280;9469;51.114;13.914;2022-08-03T20:55:33;98693.59;;;25.81;63.28
18678;BME280;9469;51.114;13.914;2022-08-03T21:01:01;98697.00;;;25.96;62.76
18678;BME280;9469;51.114;13.914;2022-08-03T21:06:09;98697.50;;;25.77;63.91
18678;BME280;9469;51.114;13.914;2022-08-03T21:11:17;98703.09;;;25.59;64.44
18678;BME280;9469;51.114;13.914;2022-08-03T21:16:31;98693.16;;;25.28;65.61
18678;BME280;9469;51.114;13.914;2022-08-03T21:21:38;98705.19;;;25.27;65.76
18678;BME280;9469;51.114;13.914;2022-08-03T21:26:44;98708.75;;;25.17;65.90
18678;BME280;9469;51.114;13.914;2022-08-03T21:31:55;98702.31;;;24.75;67.61
18678;BME280;9469;51.114;13.914;2022-08-03T21:37:03;98707.34;;;24.63;68.13
18678;BME280;9469;51.114;13.914;2022-08-03T21:42:08;98708.56;;;24.48;69.26
18678;BME280;9469;51.114;13.914;2022-08-03T21:47:16;98698.03;;;24.78;68.66
18678;BME280;9469;51.114;13.914;2022-08-03T21:52:22;98706.22;;;24.50;69.40
18678;BME280;9469;51.114;13.914;2022-08-03T21:57:28;98712.84;;;24.38;70.23
18678;BME280;9469;51.114;13.914;2022-08-03T22:02:44;98707.44;;;24.31;70.34
18678;BME280;9469;51.114;13.914;2022-08-03T22:07:56;98702.00;;;24.03;71.95
18678;BME280;9469;51.114;13.914;2022-08-03T22:13:01;98704.72;;;24.03;72.17
18678;BME280;9469;51.114;13.914;2022-08-03T22:18:09;98699.66;;;23.98;72.36
18678;BME280;9469;51.114;13.914;2022-08-03T22:23:14;98696.56;;;23.89;72.71
18678;BME280;9469;51.114;13.914;2022-08-03T22:28:23;98705.88;;;23.81;71.90
18678;BME280;9469;51.114;13.914;2022-08-03T22:33:35;98707.03;;;23.97;71.22
18678;BME280;9469;51.114;13.914;2022-08-03T22:38:42;98704.31;;;23.87;71.30
18678;BME280;9469;51.114;13.914;2022-08-03T22:43:47;98706.28;;;23.90;71.02
18678;BME280;9469;51.114;13.914;2022-08-03T22:48:55;98700.06;;;23.79;71.88
18678;BME280;9469;51.114;13.914;2022-08-03T22:54:01;98710.84;;;23.43;73.20
18678;BME280;9469;51.114;13.914;2022-08-03T22:59:06;98703.50;;;23.47;73.09
18678;BME280;9469;51.114;13.914;2022-08-03T23:04:37;98708.47;;;23.31;73.67
18678;BME280;9469;51.114;13.914;2022-08-03T23:09:44;98706.94;;;23.34;74.27
18678;BME280;9469;51.114;13.914;2022-08-03T23:14:53;98708.06;;;23.29;74.19
18678;BME280;9469;51.114;13.914;2022-08-03T23:20:04;98709.69;;;23.41;73.98
18678;BME280;9469;51.114;13.914;2022-08-03T23:25:10;98711.66;;;23.40;73.88
18678;BME280;9469;51.114;13.914;2022-08-03T23:30:15;98705.75;;;23.24;74.78
18678;BME280;9469;51.114;13.914;2022-08-03T23:35:23;98703.00;;;23.21;74.81
18678;BME280;9469;51.114;13.914;2022-08-03T23:41:02;98710.72;;;23.08;75.53
18678;BME280;9469;51.114;13.914;2022-08-03T23:46:08;98708.78;;;23.05;75.05
18678;BME280;9469;51.114;13.914;2022-08-03T23:51:27;98702.97;;;23.14;74.89
18678;BME280;9469;51.114;13.914;2022-08-03T23:56:44;98711.47;;;23.05;74.68
